createdAt,value
2023-03-22T00:00:43.250Z,10.20
2023-03-22T00:01:46.534Z,10.20
2023-03-22T00:02:48.467Z,10.20
2023-03-22T00:03:52.841Z,10.20
2023-03-22T00:04:54.843Z,10.20
2023-03-22T00:05:57.932Z,10.10
2023-03-22T00:06:59.822Z,10.10
2023-03-22T00:08:05.685Z,10.20
2023-03-22T00:09:07.365Z,10.10
2023-03-22T00:10:09.909Z,10.10
2023-03-22T00:11:12.944Z,10.10
2023-03-22T00:12:14.900Z,10.10
2023-03-22T00:13:16.631Z,10.10
2023-03-22T00:14:20.208Z,10.10
2023-03-22T00:15:22.741Z,10.10
2023-03-22T00:16:24.707Z,10.10
2023-03-22T00:17:27.373Z,10.10
2023-03-22T00:18:30.154Z,10.10
2023-03-22T00:19:34.105Z,10.00
2023-03-22T00:20:38.369Z,10.00
2023-03-22T00:21:41.022Z,10.00
2023-03-22T00:22:43.131Z,10.00
2023-03-22T00:23:45.423Z,10.00
2023-03-22T00:24:47.654Z,10.00
2023-03-22T00:25:50.187Z,10.00
2023-03-22T00:26:52.181Z,9.90
2023-03-22T00:27:53.959Z,9.90
2023-03-22T00:28:55.993Z,9.90
2023-03-22T00:29:58.861Z,9.90
2023-03-22T00:31:01.921Z,9.90
2023-03-22T00:32:04.360Z,9.90
2023-03-22T00:33:06.612Z,9.90
2023-03-22T00:34:08.496Z,9.80
2023-03-22T00:35:11.055Z,9.80
2023-03-22T00:36:13.435Z,9.80
2023-03-22T00:37:16.863Z,9.80
2023-03-22T00:38:19.730Z,9.80
2023-03-22T00:39:23.013Z,9.70
2023-03-22T00:40:24.919Z,9.70
2023-03-22T00:41:26.776Z,9.70
2023-03-22T00:42:28.529Z,9.70
2023-03-22T00:43:31.906Z,9.70
2023-03-22T00:44:33.867Z,9.70
2023-03-22T00:45:40.954Z,9.60
2023-03-22T00:46:43.244Z,9.60
2023-03-22T00:47:45.591Z,9.60
2023-03-22T00:48:48.567Z,9.60
2023-03-22T00:49:51.112Z,9.50
2023-03-22T00:50:53.300Z,9.50
2023-03-22T00:51:55.547Z,9.40
2023-03-22T00:52:57.374Z,9.40
2023-03-22T00:53:59.202Z,9.40
2023-03-22T00:55:01.701Z,9.40
2023-03-22T00:56:05.652Z,9.30
2023-03-22T00:57:17.166Z,9.30
2023-03-22T00:58:19.111Z,9.30
2023-03-22T00:59:21.532Z,9.30
2023-03-22T01:00:24.774Z,9.20
2023-03-22T01:01:27.771Z,9.20
2023-03-22T01:02:30.419Z,9.20
2023-03-22T01:03:33.377Z,9.20
2023-03-22T01:04:36.091Z,9.10
2023-03-22T01:05:39.424Z,9.10
2023-03-22T01:06:42.397Z,9.10
2023-03-22T01:07:44.949Z,9.10
2023-03-22T01:08:46.948Z,9.10
2023-03-22T01:09:52.346Z,9.10
2023-03-22T01:10:54.199Z,9.10
2023-03-22T01:11:56.354Z,9.10
2023-03-22T01:12:58.396Z,9.00
2023-03-22T01:14:01.683Z,9.00
2023-03-22T01:15:05.940Z,9.00
2023-03-22T01:16:09.022Z,9.00
2023-03-22T01:17:11.746Z,9.00
2023-03-22T01:18:13.602Z,9.00
2023-03-22T01:19:15.488Z,8.90
2023-03-22T01:20:19.091Z,8.90
2023-03-22T01:21:20.998Z,8.90
2023-03-22T01:22:24.900Z,8.90
2023-03-22T01:23:26.992Z,8.90
2023-03-22T01:24:29.514Z,8.90
2023-03-22T01:25:31.671Z,8.90
2023-03-22T01:26:33.578Z,8.90
2023-03-22T01:27:35.592Z,8.90
2023-03-22T01:28:37.498Z,8.80
2023-03-22T01:29:39.313Z,8.80
2023-03-22T01:30:42.509Z,8.80
2023-03-22T01:31:44.632Z,8.80
2023-03-22T01:32:47.469Z,8.80
2023-03-22T01:33:50.936Z,8.80
2023-03-22T01:34:53.734Z,8.80
2023-03-22T01:35:55.584Z,8.80
2023-03-22T01:36:57.594Z,8.80
2023-03-22T01:37:59.650Z,8.80
2023-03-22T01:39:01.812Z,8.80
2023-03-22T01:40:04.969Z,8.80
2023-03-22T01:41:08.110Z,8.80
2023-03-22T01:42:14.829Z,8.80
2023-03-22T01:43:17.647Z,8.70
2023-03-22T01:44:22.146Z,8.80
2023-03-22T01:45:40.080Z,8.80
2023-03-22T01:46:43.804Z,8.70
2023-03-22T01:48:12.687Z,8.80
2023-03-22T01:49:25.264Z,8.80
2023-03-22T01:50:28.260Z,8.70
2023-03-22T01:51:31.040Z,8.70
2023-03-22T01:52:46.606Z,8.80
2023-03-22T01:54:04.140Z,8.80
2023-03-22T01:55:09.396Z,8.80
2023-03-22T01:56:25.635Z,8.80
2023-03-22T01:57:28.126Z,8.80
2023-03-22T01:58:33.802Z,8.80
2023-03-22T01:59:40.014Z,8.80
2023-03-22T02:00:58.813Z,8.90
2023-03-22T02:02:22.294Z,8.90
2023-03-22T02:03:46.667Z,8.90
2023-03-22T02:04:58.380Z,8.90
2023-03-22T02:06:03.931Z,8.90
2023-03-22T02:07:10.516Z,8.90
2023-03-22T02:08:14.912Z,8.90
2023-03-22T02:09:42.390Z,8.90
2023-03-22T02:10:45.635Z,9.00
2023-03-22T02:12:17.013Z,9.00
2023-03-22T02:13:42.476Z,9.00
2023-03-22T02:15:25.659Z,9.00
2023-03-22T02:17:10.250Z,9.00
2023-03-22T02:18:21.590Z,9.00
2023-03-22T02:19:45.537Z,9.00
2023-03-22T02:21:11.807Z,9.10
2023-03-22T02:22:39.163Z,9.10
2023-03-22T02:24:11.901Z,9.10
2023-03-22T02:25:25.310Z,9.00
2023-03-22T02:26:33.099Z,9.10
2023-03-22T02:27:53.209Z,9.10
2023-03-22T02:29:13.301Z,9.10
2023-03-22T02:30:33.191Z,9.10
2023-03-22T02:32:04.342Z,9.10
2023-03-22T02:33:33.698Z,9.10
2023-03-22T02:35:00.418Z,9.10
2023-03-22T02:36:31.019Z,9.10
2023-03-22T02:38:10.564Z,9.10
2023-03-22T02:39:27.321Z,9.10
2023-03-22T02:40:46.932Z,9.10
2023-03-22T02:42:05.486Z,9.10
2023-03-22T02:43:30.962Z,9.10
2023-03-22T02:44:42.678Z,9.10
2023-03-22T02:46:06.302Z,9.10
2023-03-22T02:47:20.654Z,9.10
2023-03-22T02:48:30.969Z,9.10
2023-03-22T02:49:48.528Z,9.10
2023-03-22T02:50:54.609Z,9.10
2023-03-22T02:52:10.290Z,9.10
2023-03-22T02:53:25.605Z,9.10
2023-03-22T02:54:37.070Z,9.10
2023-03-22T02:55:58.222Z,9.20
2023-03-22T02:57:16.822Z,9.20
2023-03-22T02:58:28.610Z,9.20
2023-03-22T02:59:34.051Z,9.20
2023-03-22T03:00:38.997Z,9.30
2023-03-22T03:01:47.703Z,9.30
2023-03-22T03:02:55.016Z,9.30
2023-03-22T03:04:04.969Z,9.30
2023-03-22T03:05:08.893Z,9.30
2023-03-22T03:06:17.689Z,9.30
2023-03-22T03:07:23.887Z,9.40
2023-03-22T03:08:27.364Z,9.40
2023-03-22T03:09:31.802Z,9.40
2023-03-22T03:10:35.378Z,9.40
2023-03-22T03:11:37.485Z,9.50
2023-03-22T03:12:40.895Z,9.50
2023-03-22T03:13:44.002Z,9.50
2023-03-22T03:14:45.846Z,9.50
2023-03-22T03:15:58.798Z,9.50
2023-03-22T03:17:10.060Z,9.60
2023-03-22T03:18:40.933Z,9.60
2023-03-22T03:20:02.386Z,9.60
2023-03-22T03:21:24.060Z,9.70
2023-03-22T03:22:34.690Z,9.70
2023-03-22T03:23:57.842Z,9.70
2023-03-22T03:25:22.598Z,9.80
2023-03-22T03:26:43.795Z,9.80
2023-03-22T03:27:57.587Z,9.80
2023-03-22T03:29:08.130Z,9.90
2023-03-22T03:30:19.646Z,9.90
2023-03-22T03:31:37.106Z,10.00
2023-03-22T03:33:09.339Z,10.00
2023-03-22T03:34:21.941Z,10.10
2023-03-22T03:35:29.190Z,10.10
2023-03-22T03:36:34.343Z,10.10
2023-03-22T03:37:48.881Z,10.10
2023-03-22T03:38:54.613Z,10.20
2023-03-22T03:40:32.839Z,10.20
2023-03-22T03:41:35.835Z,10.20
2023-03-22T03:42:40.076Z,10.20
2023-03-22T03:43:43.628Z,10.20
2023-03-22T03:44:45.781Z,10.20
2023-03-22T03:45:47.993Z,10.20
2023-03-22T03:46:53.084Z,10.20
2023-03-22T03:47:59.109Z,10.30
2023-03-22T03:49:04.212Z,10.30
2023-03-22T03:50:07.302Z,10.30
2023-03-22T03:51:09.344Z,10.30
2023-03-22T03:52:11.479Z,10.30
2023-03-22T03:53:13.685Z,10.30
2023-03-22T03:54:15.916Z,10.30
2023-03-22T03:55:18.177Z,10.30
2023-03-22T03:56:20.325Z,10.30
2023-03-22T03:57:24.001Z,10.20
2023-03-22T03:58:25.909Z,10.20
2023-03-22T03:59:29.006Z,10.30
2023-03-22T04:00:31.751Z,10.30
2023-03-22T04:01:57.217Z,10.30
2023-03-22T04:03:02.607Z,10.30
2023-03-22T04:04:30.513Z,10.30
2023-03-22T04:05:36.686Z,10.40
2023-03-22T04:06:39.485Z,10.40
2023-03-22T04:07:46.164Z,10.40
2023-03-22T04:08:53.577Z,10.40
2023-03-22T04:09:59.560Z,10.40
2023-03-22T04:11:06.719Z,10.40
2023-03-22T04:12:11.978Z,10.40
2023-03-22T04:13:15.186Z,10.50
2023-03-22T04:14:17.637Z,10.50
2023-03-22T04:15:22.790Z,10.50
2023-03-22T04:16:29.261Z,10.50
2023-03-22T04:17:32.194Z,10.50
2023-03-22T04:18:34.283Z,10.50
2023-03-22T04:19:38.999Z,10.50
2023-03-22T04:20:41.913Z,10.60
2023-03-22T04:21:43.926Z,10.60
2023-03-22T04:22:46.887Z,10.60
2023-03-22T04:23:48.740Z,10.60
2023-03-22T04:24:51.709Z,10.60
2023-03-22T04:25:59.660Z,10.60
2023-03-22T04:27:11.953Z,10.60
2023-03-22T04:28:35.157Z,10.60
2023-03-22T04:29:37.347Z,10.60
2023-03-22T04:30:57.901Z,10.70
2023-03-22T04:32:25.655Z,10.70
2023-03-22T04:33:32.695Z,10.70
2023-03-22T04:34:54.825Z,10.70
2023-03-22T04:35:57.424Z,10.70
2023-03-22T04:37:06.441Z,10.70
2023-03-22T04:38:12.085Z,10.70
2023-03-22T04:39:15.713Z,10.80
2023-03-22T04:40:26.537Z,10.80
2023-03-22T04:41:38.083Z,10.80
2023-03-22T04:42:39.940Z,10.80
2023-03-22T04:43:51.086Z,10.80
2023-03-22T04:44:53.234Z,10.80
2023-03-22T04:45:58.674Z,10.80
2023-03-22T04:47:07.588Z,10.80
2023-03-22T04:48:11.150Z,10.80
2023-03-22T04:49:13.980Z,10.80
2023-03-22T04:50:19.722Z,10.80
2023-03-22T04:51:29.836Z,10.80
2023-03-22T04:52:58.436Z,10.80
2023-03-22T04:54:01.325Z,10.80
2023-03-22T04:55:04.578Z,10.80
2023-03-22T04:56:09.031Z,10.80
2023-03-22T04:57:10.913Z,10.80
2023-03-22T04:58:17.401Z,10.80
2023-03-22T04:59:20.359Z,10.80
2023-03-22T05:00:24.093Z,10.80
2023-03-22T05:01:29.955Z,10.80
2023-03-22T05:02:43.289Z,10.80
2023-03-22T05:03:53.089Z,10.80
2023-03-22T05:04:57.562Z,10.80
2023-03-22T05:06:09.295Z,10.80
2023-03-22T05:07:31.557Z,10.80
2023-03-22T05:08:36.325Z,10.80
2023-03-22T05:09:38.450Z,10.80
2023-03-22T05:10:41.364Z,10.80
2023-03-22T05:11:43.632Z,10.80
2023-03-22T05:12:56.909Z,10.80
2023-03-22T05:14:03.693Z,10.80
2023-03-22T05:15:07.683Z,10.70
2023-03-22T05:16:12.711Z,10.70
2023-03-22T05:17:22.584Z,10.70
2023-03-22T05:18:26.638Z,10.70
2023-03-22T05:19:33.217Z,10.70
2023-03-22T05:20:36.637Z,10.70
2023-03-22T05:21:46.220Z,10.70
2023-03-22T05:22:50.625Z,10.70
2023-03-22T05:23:56.601Z,10.70
2023-03-22T05:24:58.732Z,10.60
2023-03-22T05:26:04.299Z,10.60
2023-03-22T05:27:06.974Z,10.60
2023-03-22T05:28:08.890Z,10.60
2023-03-22T05:29:17.038Z,10.60
2023-03-22T05:30:32.962Z,10.60
2023-03-22T05:31:40.753Z,10.60
2023-03-22T05:32:44.243Z,10.60
2023-03-22T05:33:46.770Z,10.60
2023-03-22T05:34:51.363Z,10.50
2023-03-22T05:36:21.513Z,10.50
2023-03-22T05:37:41.563Z,10.50
2023-03-22T05:38:44.823Z,10.50
2023-03-22T05:39:47.053Z,10.50
2023-03-22T05:40:49.158Z,10.50
2023-03-22T05:41:51.189Z,10.50
2023-03-22T05:42:54.319Z,10.50
2023-03-22T05:44:01.253Z,10.50
2023-03-22T05:45:03.858Z,10.50
2023-03-22T05:46:10.863Z,10.50
2023-03-22T05:47:18.988Z,10.50
2023-03-22T05:48:44.582Z,10.50
2023-03-22T05:49:47.204Z,10.50
2023-03-22T05:50:49.815Z,10.40
2023-03-22T05:51:52.325Z,10.50
2023-03-22T05:52:57.606Z,10.50
2023-03-22T05:54:22.261Z,10.50
2023-03-22T05:55:26.180Z,10.40
2023-03-22T05:56:31.791Z,10.50
2023-03-22T05:57:41.755Z,10.50
2023-03-22T05:58:44.177Z,10.50
2023-03-22T05:59:49.812Z,10.50
2023-03-22T06:01:03.300Z,10.40
2023-03-22T06:02:25.989Z,10.40
2023-03-22T06:03:28.558Z,10.40
2023-03-22T06:04:47.778Z,10.40
2023-03-22T06:05:51.645Z,10.40
2023-03-22T06:06:57.828Z,10.40
2023-03-22T06:08:11.377Z,10.40
2023-03-22T06:09:17.558Z,10.40
2023-03-22T06:10:26.760Z,10.40
2023-03-22T06:11:30.587Z,10.40
2023-03-22T06:12:32.945Z,10.40
2023-03-22T06:13:41.377Z,10.40
2023-03-22T06:14:44.725Z,10.40
2023-03-22T06:15:53.452Z,10.40
2023-03-22T06:16:58.141Z,10.40
2023-03-22T06:18:00.091Z,10.40
2023-03-22T06:19:10.887Z,10.40
2023-03-22T06:20:14.361Z,10.40
2023-03-22T06:21:22.031Z,10.40
2023-03-22T06:22:24.782Z,10.40
2023-03-22T06:23:28.035Z,10.40
2023-03-22T06:24:29.927Z,10.50
2023-03-22T06:25:32.342Z,10.50
2023-03-22T06:26:34.474Z,10.50
2023-03-22T06:27:36.445Z,10.50
2023-03-22T06:28:38.666Z,10.50
2023-03-22T06:29:41.229Z,10.50
2023-03-22T06:30:43.610Z,10.50
2023-03-22T06:32:01.011Z,10.60
2023-03-22T06:33:05.222Z,10.60
2023-03-22T06:34:10.053Z,10.60
2023-03-22T06:35:17.284Z,10.60
2023-03-22T06:36:21.147Z,10.70
2023-03-22T06:37:46.575Z,10.70
2023-03-22T06:38:48.422Z,10.80
2023-03-22T06:39:51.827Z,10.80
2023-03-22T06:40:55.259Z,10.80
2023-03-22T06:41:57.229Z,10.90
2023-03-22T06:43:01.986Z,10.90
2023-03-22T06:44:08.210Z,10.90
2023-03-22T06:45:39.434Z,10.90
2023-03-22T06:46:42.328Z,11.00
2023-03-22T06:47:52.588Z,11.00
2023-03-22T06:48:57.287Z,11.00
2023-03-22T06:49:59.918Z,11.00
2023-03-22T06:51:14.698Z,11.10
2023-03-22T06:52:16.656Z,11.10
2023-03-22T06:53:18.620Z,11.10
2023-03-22T06:54:21.562Z,11.20
2023-03-22T06:55:24.110Z,11.20
2023-03-22T06:56:27.048Z,11.20
2023-03-22T06:57:29.386Z,11.30
2023-03-22T06:58:31.612Z,11.30
2023-03-22T06:59:33.625Z,11.40
2023-03-22T07:00:38.815Z,11.40
2023-03-22T07:01:42.522Z,11.40
2023-03-22T07:02:46.231Z,11.50
2023-03-22T07:03:55.837Z,11.50
2023-03-22T07:04:58.970Z,11.40
2023-03-22T07:06:06.621Z,11.50
2023-03-22T07:07:11.337Z,11.40
2023-03-22T07:08:13.182Z,11.40
2023-03-22T07:09:24.967Z,11.40
2023-03-22T07:10:30.610Z,11.40
2023-03-22T07:11:32.558Z,11.40
2023-03-22T07:12:37.036Z,11.40
2023-03-22T07:13:45.549Z,11.40
2023-03-22T07:14:52.018Z,11.40
2023-03-22T07:16:03.499Z,11.40
2023-03-22T07:17:27.012Z,11.40
2023-03-22T07:18:29.768Z,11.40
2023-03-22T07:19:32.484Z,11.40
2023-03-22T07:20:42.001Z,11.40
2023-03-22T07:21:44.335Z,11.40
2023-03-22T07:22:49.785Z,11.40
2023-03-22T07:23:52.662Z,11.40
2023-03-22T07:24:59.445Z,11.40
2023-03-22T07:26:04.809Z,11.40
2023-03-22T07:27:08.719Z,11.40
2023-03-22T07:28:11.538Z,11.40
2023-03-22T07:29:13.512Z,11.50
2023-03-22T07:30:15.363Z,11.50
2023-03-22T07:31:20.390Z,11.50
2023-03-22T07:32:45.217Z,11.60
2023-03-22T07:33:48.908Z,11.60
2023-03-22T07:34:51.414Z,11.60
2023-03-22T07:35:54.217Z,11.60
2023-03-22T07:36:57.021Z,11.70
2023-03-22T07:37:59.737Z,11.70
2023-03-22T07:39:06.393Z,11.70
2023-03-22T07:40:12.961Z,11.70
2023-03-22T07:41:14.742Z,11.80
2023-03-22T07:42:28.620Z,11.80
2023-03-22T07:43:56.636Z,11.80
2023-03-22T07:45:05.177Z,11.80
2023-03-22T07:46:19.558Z,11.80
2023-03-22T07:47:41.364Z,11.80
2023-03-22T07:49:08.853Z,11.80
2023-03-22T07:50:29.376Z,11.80
2023-03-22T07:51:34.185Z,11.80
2023-03-22T07:52:37.315Z,11.90
2023-03-22T07:53:39.376Z,11.90
2023-03-22T07:54:41.688Z,11.90
2023-03-22T07:55:44.947Z,12.00
2023-03-22T07:56:48.767Z,12.00
2023-03-22T07:57:56.158Z,12.00
2023-03-22T07:58:58.195Z,12.00
2023-03-22T08:00:01.102Z,12.10
2023-03-22T08:01:17.724Z,12.10
2023-03-22T08:02:45.858Z,12.10
2023-03-22T08:04:00.799Z,12.10
2023-03-22T08:05:17.099Z,12.10
2023-03-22T08:06:21.591Z,12.20
2023-03-22T08:07:25.268Z,12.20
2023-03-22T08:08:27.440Z,12.30
2023-03-22T08:09:30.869Z,12.40
2023-03-22T08:10:33.062Z,12.50
2023-03-22T08:11:36.708Z,12.50
2023-03-22T08:12:38.537Z,12.60
2023-03-22T08:13:49.970Z,12.70
2023-03-22T08:14:53.343Z,12.80
2023-03-22T08:15:59.403Z,12.80
2023-03-22T08:17:01.665Z,12.80
2023-03-22T08:18:03.728Z,12.80
2023-03-22T08:19:13.058Z,12.80
2023-03-22T08:20:18.744Z,12.90
2023-03-22T08:21:26.506Z,12.80
2023-03-22T08:22:30.222Z,12.90
2023-03-22T08:23:51.296Z,12.80
2023-03-22T08:25:12.184Z,12.80
2023-03-22T08:26:14.942Z,12.80
2023-03-22T08:27:19.190Z,12.80
2023-03-22T08:28:24.440Z,12.80
2023-03-22T08:29:26.666Z,12.80
2023-03-22T08:30:28.686Z,12.80
2023-03-22T08:31:31.027Z,12.80
2023-03-22T08:32:33.701Z,12.80
2023-03-22T08:33:36.122Z,12.80
2023-03-22T08:34:39.391Z,12.80
2023-03-22T08:35:42.108Z,12.80
2023-03-22T08:36:44.391Z,12.80
2023-03-22T08:37:46.287Z,12.80
2023-03-22T08:38:49.535Z,12.80
2023-03-22T08:39:53.535Z,12.80
2023-03-22T08:41:07.088Z,12.80
2023-03-22T08:42:09.954Z,12.80
2023-03-22T08:43:11.756Z,12.80
2023-03-22T08:44:13.927Z,12.80
2023-03-22T08:45:16.678Z,12.90
2023-03-22T08:46:25.933Z,12.90
2023-03-22T08:47:27.830Z,12.90
2023-03-22T08:48:38.669Z,12.80
2023-03-22T08:49:52.043Z,12.90
2023-03-22T08:51:08.986Z,12.90
2023-03-22T08:52:22.743Z,12.90
2023-03-22T08:53:33.573Z,12.90
2023-03-22T08:54:56.095Z,12.90
2023-03-22T08:56:16.785Z,12.90
2023-03-22T08:57:32.803Z,12.90
2023-03-22T08:58:57.426Z,12.90
2023-03-22T09:00:13.719Z,12.80
2023-03-22T09:01:39.046Z,12.80
2023-03-22T09:02:43.756Z,12.80
2023-03-22T09:03:45.687Z,12.80
2023-03-22T09:04:47.751Z,12.80
2023-03-22T09:05:53.041Z,12.80
2023-03-22T09:06:55.702Z,12.80
2023-03-22T09:08:02.607Z,12.80
2023-03-22T09:09:14.046Z,12.70
2023-03-22T09:10:17.617Z,12.70
2023-03-22T09:11:22.772Z,12.70
2023-03-22T09:12:24.612Z,12.70
2023-03-22T09:13:26.530Z,12.70
2023-03-22T09:14:32.956Z,12.60
2023-03-22T09:15:35.009Z,12.60
2023-03-22T09:16:58.688Z,12.60
2023-03-22T09:18:01.327Z,12.50
2023-03-22T09:19:03.549Z,12.50
2023-03-22T09:20:12.940Z,12.50
2023-03-22T09:21:17.081Z,12.50
2023-03-22T09:22:44.561Z,12.50
2023-03-22T09:23:50.562Z,12.40
2023-03-22T09:24:55.380Z,12.40
2023-03-22T09:26:00.603Z,12.40
2023-03-22T09:27:03.569Z,12.40
2023-03-22T09:28:06.172Z,12.40
2023-03-22T09:29:08.112Z,12.40
2023-03-22T09:30:11.228Z,12.40
2023-03-22T09:31:13.165Z,12.40
2023-03-22T09:32:17.485Z,12.40
2023-03-22T09:33:25.968Z,12.30
2023-03-22T09:34:28.808Z,12.30
2023-03-22T09:35:32.247Z,12.30
2023-03-22T09:36:40.524Z,12.30
2023-03-22T09:37:43.081Z,12.20
2023-03-22T09:38:45.529Z,12.20
2023-03-22T09:39:47.937Z,12.20
2023-03-22T09:41:00.625Z,12.20
2023-03-22T09:42:07.742Z,12.10
2023-03-22T09:43:12.729Z,12.10
2023-03-22T09:44:22.678Z,12.00
2023-03-22T09:45:38.401Z,12.00
2023-03-22T09:46:46.962Z,11.90
2023-03-22T09:47:54.565Z,11.90
2023-03-22T09:48:59.004Z,11.90
2023-03-22T09:50:13.703Z,11.80
2023-03-22T09:51:28.912Z,11.80
2023-03-22T09:52:31.144Z,11.80
2023-03-22T09:53:33.922Z,11.80
2023-03-22T09:54:38.770Z,11.80
2023-03-22T09:55:49.900Z,11.80
2023-03-22T09:57:03.286Z,11.70
2023-03-22T09:58:33.005Z,11.70
2023-03-22T10:00:12.897Z,11.70
2023-03-22T10:01:41.989Z,11.60
2023-03-22T10:02:47.104Z,11.50
2023-03-22T10:04:22.143Z,11.50
2023-03-22T10:05:47.009Z,11.50
2023-03-22T10:06:54.488Z,11.50
2023-03-22T10:08:02.069Z,11.50
2023-03-22T10:09:36.981Z,11.50
2023-03-22T10:10:42.114Z,11.50
2023-03-22T10:11:57.404Z,11.50
2023-03-22T10:13:30.041Z,11.50
2023-03-22T10:15:04.828Z,11.50
2023-03-22T10:16:19.254Z,11.50
2023-03-22T10:17:26.622Z,11.50
2023-03-22T10:18:50.796Z,11.50
2023-03-22T10:20:08.346Z,11.50
2023-03-22T10:21:12.760Z,11.50
2023-03-22T10:22:20.584Z,11.50
2023-03-22T10:23:30.426Z,11.50
2023-03-22T10:24:35.698Z,11.50
2023-03-22T10:25:39.892Z,11.40
2023-03-22T10:26:46.515Z,11.40
2023-03-22T10:27:50.583Z,11.40
2023-03-22T10:29:04.539Z,11.40
2023-03-22T10:30:23.081Z,11.40
2023-03-22T10:31:27.995Z,11.40
2023-03-22T10:32:54.790Z,11.30
2023-03-22T10:34:05.817Z,11.30
2023-03-22T10:35:13.048Z,11.30
2023-03-22T10:36:16.528Z,11.20
2023-03-22T10:37:22.423Z,11.20
2023-03-22T10:38:28.998Z,11.20
2023-03-22T10:39:37.148Z,11.20
2023-03-22T10:40:43.482Z,11.20
2023-03-22T10:41:46.509Z,11.20
2023-03-22T10:42:55.959Z,11.20
2023-03-22T10:44:00.539Z,11.20
2023-03-22T10:45:12.674Z,11.20
2023-03-22T10:46:23.743Z,11.20
2023-03-22T10:47:40.620Z,11.20
2023-03-22T10:48:45.868Z,11.20
2023-03-22T10:49:54.727Z,11.10
2023-03-22T10:50:59.233Z,11.10
2023-03-22T10:52:20.995Z,11.10
2023-03-22T10:53:42.112Z,11.10
2023-03-22T10:54:44.377Z,11.10
2023-03-22T10:55:47.615Z,11.10
2023-03-22T10:56:49.877Z,11.00
2023-03-22T10:58:19.899Z,11.00
2023-03-22T10:59:47.664Z,11.10
2023-03-22T11:01:04.005Z,11.10
2023-03-22T11:02:06.039Z,11.00
2023-03-22T11:03:07.931Z,11.00
2023-03-22T11:04:15.040Z,11.10
2023-03-22T11:05:28.647Z,11.10
2023-03-22T11:06:35.892Z,11.10
2023-03-22T11:07:42.950Z,11.10
2023-03-22T11:08:58.608Z,11.10
2023-03-22T11:10:21.816Z,11.20
2023-03-22T11:11:28.589Z,11.20
2023-03-22T11:12:30.889Z,11.20
2023-03-22T11:13:35.337Z,11.30
2023-03-22T11:14:43.472Z,11.30
2023-03-22T11:16:02.358Z,11.30
2023-03-22T11:17:14.121Z,11.30
2023-03-22T11:18:17.710Z,11.40
2023-03-22T11:19:28.878Z,11.40
2023-03-22T11:20:31.876Z,11.40
2023-03-22T11:21:35.080Z,11.40
2023-03-22T11:22:40.361Z,11.40
2023-03-22T11:23:49.867Z,11.50
2023-03-22T11:24:52.154Z,11.50
2023-03-22T11:25:57.301Z,11.50
2023-03-22T11:27:18.720Z,11.40
2023-03-22T11:28:26.750Z,11.50
2023-03-22T11:29:28.822Z,11.50
2023-03-22T11:30:32.857Z,11.50
2023-03-22T11:31:59.659Z,11.50
2023-03-22T11:33:09.638Z,11.40
2023-03-22T11:34:17.978Z,11.50
2023-03-22T11:35:28.445Z,11.50
2023-03-22T11:36:30.955Z,11.50
2023-03-22T11:37:34.728Z,11.50
2023-03-22T11:38:44.233Z,11.50
2023-03-22T11:39:50.656Z,11.60
2023-03-22T11:41:00.362Z,11.60
2023-03-22T11:42:06.367Z,11.60
2023-03-22T11:43:19.356Z,11.70
2023-03-22T11:44:23.133Z,11.70
2023-03-22T11:45:32.529Z,11.70
2023-03-22T11:46:36.254Z,11.70
2023-03-22T11:47:39.631Z,11.80
2023-03-22T11:48:42.848Z,11.80
2023-03-22T11:49:51.809Z,11.80
2023-03-22T11:50:56.671Z,11.80
2023-03-22T11:52:08.899Z,11.80
2023-03-22T11:53:17.084Z,11.80
2023-03-22T11:54:35.784Z,11.80
2023-03-22T11:55:37.834Z,11.80
2023-03-22T11:56:47.369Z,11.80
2023-03-22T11:57:50.298Z,11.90
2023-03-22T11:59:16.700Z,11.90
2023-03-22T12:00:26.840Z,11.90
2023-03-22T12:01:46.497Z,11.90
2023-03-22T12:02:56.358Z,11.90
2023-03-22T12:03:59.658Z,11.90
2023-03-22T12:05:15.039Z,11.80
2023-03-22T12:06:24.411Z,11.90
2023-03-22T12:07:28.764Z,11.90
2023-03-22T12:08:46.502Z,11.80
2023-03-22T12:09:57.520Z,11.90
2023-03-22T12:11:08.284Z,11.90
2023-03-22T12:12:27.276Z,11.90
2023-03-22T12:13:43.972Z,11.90
2023-03-22T12:14:56.493Z,11.90
2023-03-22T12:16:02.068Z,11.90
2023-03-22T12:17:16.868Z,11.90
2023-03-22T12:18:31.111Z,11.90
2023-03-22T12:19:56.865Z,11.90
2023-03-22T12:21:00.793Z,11.90
2023-03-22T12:22:02.747Z,11.90
2023-03-22T12:23:15.648Z,11.90
2023-03-22T12:24:28.199Z,11.90
2023-03-22T12:25:36.268Z,11.90
2023-03-22T12:26:39.040Z,11.90
2023-03-22T12:27:44.004Z,11.90
2023-03-22T12:29:06.542Z,11.90
2023-03-22T12:30:17.846Z,12.00
2023-03-22T12:31:24.337Z,12.00
2023-03-22T12:32:34.105Z,12.00
2023-03-22T12:33:51.551Z,12.00
2023-03-22T12:34:57.988Z,12.00
2023-03-22T12:36:17.705Z,12.00
2023-03-22T12:37:31.366Z,12.00
2023-03-22T12:38:54.118Z,12.00
2023-03-22T12:40:01.555Z,12.00
2023-03-22T12:41:07.529Z,12.00
2023-03-22T12:42:22.173Z,12.00
2023-03-22T12:43:47.594Z,12.00
2023-03-22T12:45:02.638Z,12.00
2023-03-22T12:46:10.948Z,12.00
2023-03-22T12:47:17.263Z,12.00
2023-03-22T12:48:45.927Z,12.00
2023-03-22T12:49:59.282Z,12.00
2023-03-22T12:51:10.033Z,12.00
2023-03-22T12:52:23.842Z,12.00
2023-03-22T12:53:42.488Z,12.00
2023-03-22T12:54:47.182Z,12.00
2023-03-22T12:55:50.825Z,12.00
2023-03-22T12:56:53.841Z,12.10
2023-03-22T12:57:57.044Z,12.10
2023-03-22T12:59:04.603Z,12.10
2023-03-22T13:00:16.198Z,12.10
2023-03-22T13:01:36.511Z,12.10
2023-03-22T13:02:39.447Z,12.10
2023-03-22T13:03:52.875Z,12.20
2023-03-22T13:04:58.156Z,12.20
2023-03-22T13:06:06.979Z,12.20
2023-03-22T13:07:11.958Z,12.20
2023-03-22T13:08:22.630Z,12.20
2023-03-22T13:09:47.409Z,12.20
2023-03-22T13:11:05.712Z,12.20
2023-03-22T13:12:16.980Z,12.20
2023-03-22T13:13:21.928Z,12.20
2023-03-22T13:14:52.417Z,12.20
2023-03-22T13:16:01.136Z,12.30
2023-03-22T13:17:07.436Z,12.20
2023-03-22T13:18:51.165Z,12.20
2023-03-22T13:20:02.535Z,12.20
2023-03-22T13:21:23.541Z,12.30
2023-03-22T13:22:51.469Z,12.20
2023-03-22T13:24:02.085Z,12.20
2023-03-22T13:25:37.014Z,12.20
2023-03-22T13:26:55.575Z,12.20
2023-03-22T13:28:22.584Z,12.20
2023-03-22T13:29:38.057Z,12.20
2023-03-22T13:31:29.526Z,12.30
2023-03-22T13:32:33.892Z,12.30
2023-03-22T13:33:37.173Z,12.30
2023-03-22T13:34:46.693Z,12.30
2023-03-22T13:35:58.465Z,12.30
2023-03-22T13:37:04.487Z,12.30
2023-03-22T13:38:34.418Z,12.30
2023-03-22T13:39:48.977Z,12.40
2023-03-22T13:41:22.122Z,12.30
2023-03-22T13:42:35.993Z,12.30
2023-03-22T13:43:44.148Z,12.40
2023-03-22T13:44:51.997Z,12.40
2023-03-22T13:46:18.351Z,12.30
2023-03-22T13:47:45.430Z,12.30
2023-03-22T13:48:47.699Z,12.30
2023-03-22T13:49:54.621Z,12.30
2023-03-22T13:50:58.510Z,12.40
2023-03-22T13:52:08.062Z,12.40
2023-03-22T13:53:21.912Z,12.40
2023-03-22T13:54:32.352Z,12.40
2023-03-22T13:55:49.048Z,12.40
2023-03-22T13:57:01.562Z,12.40
2023-03-22T13:58:06.038Z,12.40
2023-03-22T13:59:29.904Z,12.30
2023-03-22T14:00:31.852Z,12.30
2023-03-22T14:01:38.160Z,12.30
2023-03-22T14:02:42.771Z,12.30
2023-03-22T14:03:48.200Z,12.40
2023-03-22T14:05:11.720Z,12.40
2023-03-22T14:06:25.698Z,12.40
2023-03-22T14:07:42.167Z,12.40
2023-03-22T14:08:49.751Z,12.30
2023-03-22T14:09:59.182Z,12.30
2023-03-22T14:11:32.896Z,12.30
2023-03-22T14:13:11.824Z,12.30
2023-03-22T14:14:35.092Z,12.30
2023-03-22T14:15:42.337Z,12.20
2023-03-22T14:16:48.867Z,12.20
2023-03-22T14:18:32.521Z,12.20
2023-03-22T14:19:35.014Z,12.20
2023-03-22T14:20:42.500Z,12.20
